Atomic City, Idaho
Current Conditions -  °F | °C
As of 4:53 PM on Friday 31 Oct 2014 (Local Time) from KIDA Reporting Station
Scattered Clouds Scattered Clouds  
Wind Chill: 68°   Ceiling: Unl
Heat Index: 68°   Visibility: 10mi
Dew Point: 27°   Wind: 17mph
Humidity: 21%   Direction: 200°SSW
Pressure: 29.87"   Gusts: NA
Location:  43.44°N, 112.81°W
Report Text: KIDA 312253Z 20015KT 10SM SCT120 20/M03 A2987 RMK AO2 SLP094 T02001028
Loading
Personal Weather Stations






























Interactive Weather Map
Tropical Storm Tracking
New forecast layout! Learn more

10-Day Weather Forecast

Advertisements
Track Severe Weather on mobile